sensor_id;sensor_type;location;lat;lon;timestamp;temperature;humidity
44537;DHT22;30245;51.966;6.292;2023-07-13T00:00:12;22.70;50.10
44537;DHT22;30245;51.966;6.292;2023-07-13T00:02:41;22.60;50.20
44537;DHT22;30245;51.966;6.292;2023-07-13T00:05:07;22.60;50.20
44537;DHT22;30245;51.966;6.292;2023-07-13T00:07:32;22.60;50.20
44537;DHT22;30245;51.966;6.292;2023-07-13T00:09:58;22.60;50.20
44537;DHT22;30245;51.966;6.292;2023-07-13T00:12:27;22.60;50.30
44537;DHT22;30245;51.966;6.292;2023-07-13T00:14:56;22.50;50.30
44537;DHT22;30245;51.966;6.292;2023-07-13T00:17:23;22.50;50.40
44537;DHT22;30245;51.966;6.292;2023-07-13T00:19:49;22.50;50.60
44537;DHT22;30245;51.966;6.292;2023-07-13T00:22:14;22.40;50.50
44537;DHT22;30245;51.966;6.292;2023-07-13T00:24:40;22.30;50.60
44537;DHT22;30245;51.966;6.292;2023-07-13T00:27:08;22.30;50.70
44537;DHT22;30245;51.966;6.292;2023-07-13T00:29:35;22.20;50.80
44537;DHT22;30245;51.966;6.292;2023-07-13T00:32:03;22.20;50.90
44537;DHT22;30245;51.966;6.292;2023-07-13T00:34:28;22.10;50.90
44537;DHT22;30245;51.966;6.292;2023-07-13T00:36:54;22.10;51.00
44537;DHT22;30245;51.966;6.292;2023-07-13T00:39:20;22.10;51.00
44537;DHT22;30245;51.966;6.292;2023-07-13T00:41:46;22.10;50.90
44537;DHT22;30245;51.966;6.292;2023-07-13T00:44:18;22.10;50.90
44537;DHT22;30245;51.966;6.292;2023-07-13T00:46:43;22.10;50.90
44537;DHT22;30245;51.966;6.292;2023-07-13T00:49:13;22.10;50.90
44537;DHT22;30245;51.966;6.292;2023-07-13T00:51:43;22.00;51.00
44537;DHT22;30245;51.966;6.292;2023-07-13T00:54:20;21.90;51.10
44537;DHT22;30245;51.966;6.292;2023-07-13T00:56:50;21.90;51.30
44537;DHT22;30245;51.966;6.292;2023-07-13T00:59:17;21.90;51.40
44537;DHT22;30245;51.966;6.292;2023-07-13T01:01:44;21.90;51.40
44537;DHT22;30245;51.966;6.292;2023-07-13T01:04:10;21.80;51.50
44537;DHT22;30245;51.966;6.292;2023-07-13T01:06:37;21.80;51.60
44537;DHT22;30245;51.966;6.292;2023-07-13T01:09:04;21.80;51.60
44537;DHT22;30245;51.966;6.292;2023-07-13T01:11:31;21.90;51.50
44537;DHT22;30245;51.966;6.292;2023-07-13T01:13:57;21.90;51.40
44537;DHT22;30245;51.966;6.292;2023-07-13T01:16:27;21.90;51.30
44537;DHT22;30245;51.966;6.292;2023-07-13T01:18:55;21.80;51.40
44537;DHT22;30245;51.966;6.292;2023-07-13T01:21:24;21.80;51.60
44537;DHT22;30245;51.966;6.292;2023-07-13T01:23:50;21.80;51.60
44537;DHT22;30245;51.966;6.292;2023-07-13T01:26:16;21.80;51.60
44537;DHT22;30245;51.966;6.292;2023-07-13T01:28:42;21.70;51.60
44537;DHT22;30245;51.966;6.292;2023-07-13T01:31:08;21.70;51.60
44537;DHT22;30245;51.966;6.292;2023-07-13T01:33:37;21.70;51.60
44537;DHT22;30245;51.966;6.292;2023-07-13T01:36:03;21.70;51.80
44537;DHT22;30245;51.966;6.292;2023-07-13T01:38:28;21.70;51.70
44537;DHT22;30245;51.966;6.292;2023-07-13T01:40:54;21.60;51.60
44537;DHT22;30245;51.966;6.292;2023-07-13T01:43:20;21.60;51.70
44537;DHT22;30245;51.966;6.292;2023-07-13T01:45:46;21.50;51.80
44537;DHT22;30245;51.966;6.292;2023-07-13T01:48:13;21.40;52.00
44537;DHT22;30245;51.966;6.292;2023-07-13T01:50:39;21.40;52.10
44537;DHT22;30245;51.966;6.292;2023-07-13T01:53:04;21.30;52.20
44537;DHT22;30245;51.966;6.292;2023-07-13T01:55:33;21.30;52.40
44537;DHT22;30245;51.966;6.292;2023-07-13T01:57:59;21.30;52.30
44537;DHT22;30245;51.966;6.292;2023-07-13T02:00:24;21.30;52.30
44537;DHT22;30245;51.966;6.292;2023-07-13T02:02:50;21.30;52.20
44537;DHT22;30245;51.966;6.292;2023-07-13T02:05:16;21.30;52.40
44537;DHT22;30245;51.966;6.292;2023-07-13T02:07:42;21.20;52.50
44537;DHT22;30245;51.966;6.292;2023-07-13T02:10:10;21.20;52.60
44537;DHT22;30245;51.966;6.292;2023-07-13T02:12:36;21.20;52.70
44537;DHT22;30245;51.966;6.292;2023-07-13T02:15:03;21.20;52.60
44537;DHT22;30245;51.966;6.292;2023-07-13T02:17:29;21.30;52.60
44537;DHT22;30245;51.966;6.292;2023-07-13T02:19:54;21.30;52.50
44537;DHT22;30245;51.966;6.292;2023-07-13T02:22:21;21.30;52.50
44537;DHT22;30245;51.966;6.292;2023-07-13T02:24:47;21.20;52.60
44537;DHT22;30245;51.966;6.292;2023-07-13T02:27:13;21.20;52.70
44537;DHT22;30245;51.966;6.292;2023-07-13T02:29:39;21.10;52.90
44537;DHT22;30245;51.966;6.292;2023-07-13T02:32:05;21.10;53.20
44537;DHT22;30245;51.966;6.292;2023-07-13T02:34:31;21.10;53.30
44537;DHT22;30245;51.966;6.292;2023-07-13T02:36:56;21.00;53.40
44537;DHT22;30245;51.966;6.292;2023-07-13T02:39:22;21.00;53.50
44537;DHT22;30245;51.966;6.292;2023-07-13T02:41:48;21.00;53.50
44537;DHT22;30245;51.966;6.292;2023-07-13T02:44:14;21.00;53.50
44537;DHT22;30245;51.966;6.292;2023-07-13T02:46:40;21.00;53.40
44537;DHT22;30245;51.966;6.292;2023-07-13T02:49:06;21.00;53.40
44537;DHT22;30245;51.966;6.292;2023-07-13T02:51:32;21.00;53.50
44537;DHT22;30245;51.966;6.292;2023-07-13T02:54:02;21.00;53.60
44537;DHT22;30245;51.966;6.292;2023-07-13T02:56:30;21.00;53.50
44537;DHT22;30245;51.966;6.292;2023-07-13T02:58:56;21.10;53.40
44537;DHT22;30245;51.966;6.292;2023-07-13T03:01:22;21.10;53.40
44537;DHT22;30245;51.966;6.292;2023-07-13T03:03:49;21.10;53.50
44537;DHT22;30245;51.966;6.292;2023-07-13T03:06:15;21.00;53.60
44537;DHT22;30245;51.966;6.292;2023-07-13T03:08:40;21.10;53.70
44537;DHT22;30245;51.966;6.292;2023-07-13T03:11:08;21.00;53.60
44537;DHT22;30245;51.966;6.292;2023-07-13T03:13:36;21.00;53.70
44537;DHT22;30245;51.966;6.292;2023-07-13T03:16:02;21.00;53.90
44537;DHT22;30245;51.966;6.292;2023-07-13T03:18:28;20.90;53.90
44537;DHT22;30245;51.966;6.292;2023-07-13T03:20:54;20.80;54.10
44537;DHT22;30245;51.966;6.292;2023-07-13T03:23:21;20.80;54.40
44537;DHT22;30245;51.966;6.292;2023-07-13T03:25:47;20.70;54.60
44537;DHT22;30245;51.966;6.292;2023-07-13T03:28:13;20.70;54.70
44537;DHT22;30245;51.966;6.292;2023-07-13T03:30:39;20.70;54.80
44537;DHT22;30245;51.966;6.292;2023-07-13T03:33:05;20.70;54.70
44537;DHT22;30245;51.966;6.292;2023-07-13T03:35:31;20.80;54.60
44537;DHT22;30245;51.966;6.292;2023-07-13T03:37:58;20.80;54.40
44537;DHT22;30245;51.966;6.292;2023-07-13T03:40:25;20.90;54.30
44537;DHT22;30245;51.966;6.292;2023-07-13T03:42:51;20.90;54.30
44537;DHT22;30245;51.966;6.292;2023-07-13T03:45:17;20.90;54.30
44537;DHT22;30245;51.966;6.292;2023-07-13T03:47:43;20.90;54.40
44537;DHT22;30245;51.966;6.292;2023-07-13T03:50:09;20.80;54.40
44537;DHT22;30245;51.966;6.292;2023-07-13T03:52:35;20.80;54.40
44537;DHT22;30245;51.966;6.292;2023-07-13T03:55:00;20.80;54.50
44537;DHT22;30245;51.966;6.292;2023-07-13T03:57:26;20.80;54.60
44537;DHT22;30245;51.966;6.292;2023-07-13T03:59:52;20.80;54.80
44537;DHT22;30245;51.966;6.292;2023-07-13T04:02:17;20.80;54.80
44537;DHT22;30245;51.966;6.292;2023-07-13T04:04:43;20.70;54.90
44537;DHT22;30245;51.966;6.292;2023-07-13T04:07:09;20.70;55.10
44537;DHT22;30245;51.966;6.292;2023-07-13T04:09:35;20.70;55.10
44537;DHT22;30245;51.966;6.292;2023-07-13T04:12:01;20.70;55.00
44537;DHT22;30245;51.966;6.292;2023-07-13T04:14:27;20.60;55.10
44537;DHT22;30245;51.966;6.292;2023-07-13T04:16:52;20.60;55.40
44537;DHT22;30245;51.966;6.292;2023-07-13T04:19:20;20.60;55.40
44537;DHT22;30245;51.966;6.292;2023-07-13T04:21:46;20.60;55.50
44537;DHT22;30245;51.966;6.292;2023-07-13T04:24:12;20.60;55.60
44537;DHT22;30245;51.966;6.292;2023-07-13T04:26:38;20.60;55.50
44537;DHT22;30245;51.966;6.292;2023-07-13T04:29:05;20.70;55.60
44537;DHT22;30245;51.966;6.292;2023-07-13T04:31:31;20.70;55.50
44537;DHT22;30245;51.966;6.292;2023-07-13T04:33:57;20.70;55.60
44537;DHT22;30245;51.966;6.292;2023-07-13T04:36:24;20.70;55.50
44537;DHT22;30245;51.966;6.292;2023-07-13T04:38:52;20.70;55.60
44537;DHT22;30245;51.966;6.292;2023-07-13T04:41:19;20.70;55.60
44537;DHT22;30245;51.966;6.292;2023-07-13T04:43:45;20.70;55.60
44537;DHT22;30245;51.966;6.292;2023-07-13T04:46:14;20.70;55.90
44537;DHT22;30245;51.966;6.292;2023-07-13T04:48:41;20.70;56.00
44537;DHT22;30245;51.966;6.292;2023-07-13T04:51:07;20.80;55.90
44537;DHT22;30245;51.966;6.292;2023-07-13T04:53:33;20.80;55.90
44537;DHT22;30245;51.966;6.292;2023-07-13T04:56:00;20.90;55.80
44537;DHT22;30245;51.966;6.292;2023-07-13T04:58:26;21.00;55.70
44537;DHT22;30245;51.966;6.292;2023-07-13T05:00:53;21.00;55.90
44537;DHT22;30245;51.966;6.292;2023-07-13T05:03:18;20.90;55.90
44537;DHT22;30245;51.966;6.292;2023-07-13T05:05:58;20.90;56.10
44537;DHT22;30245;51.966;6.292;2023-07-13T05:08:24;20.90;56.10
44537;DHT22;30245;51.966;6.292;2023-07-13T05:10:51;21.00;56.00
44537;DHT22;30245;51.966;6.292;2023-07-13T05:13:17;21.00;56.20
44537;DHT22;30245;51.966;6.292;2023-07-13T05:15:42;21.00;56.80
44537;DHT22;30245;51.966;6.292;2023-07-13T05:18:08;21.10;56.00
44537;DHT22;30245;51.966;6.292;2023-07-13T05:20:33;21.20;55.90
44537;DHT22;30245;51.966;6.292;2023-07-13T05:22:59;21.20;55.80
44537;DHT22;30245;51.966;6.292;2023-07-13T05:25:25;21.20;55.80
44537;DHT22;30245;51.966;6.292;2023-07-13T05:27:50;21.30;56.00
44537;DHT22;30245;51.966;6.292;2023-07-13T05:30:16;21.30;55.90
44537;DHT22;30245;51.966;6.292;2023-07-13T05:32:42;21.30;56.00
44537;DHT22;30245;51.966;6.292;2023-07-13T05:35:08;21.40;55.80
44537;DHT22;30245;51.966;6.292;2023-07-13T05:37:34;21.40;56.00
44537;DHT22;30245;51.966;6.292;2023-07-13T05:39:59;21.40;56.10
44537;DHT22;30245;51.966;6.292;2023-07-13T05:42:25;21.40;56.20
44537;DHT22;30245;51.966;6.292;2023-07-13T05:44:51;21.50;56.20
44537;DHT22;30245;51.966;6.292;2023-07-13T05:47:16;21.50;56.30
44537;DHT22;30245;51.966;6.292;2023-07-13T05:49:42;21.50;56.50
44537;DHT22;30245;51.966;6.292;2023-07-13T05:52:08;21.40;56.50
44537;DHT22;30245;51.966;6.292;2023-07-13T05:54:33;21.50;56.60
44537;DHT22;30245;51.966;6.292;2023-07-13T05:56:59;21.60;56.50
44537;DHT22;30245;51.966;6.292;2023-07-13T05:59:25;21.60;56.50
44537;DHT22;30245;51.966;6.292;2023-07-13T06:01:51;21.60;56.60
44537;DHT22;30245;51.966;6.292;2023-07-13T06:04:18;21.60;56.90
44537;DHT22;30245;51.966;6.292;2023-07-13T06:06:44;21.50;57.00
44537;DHT22;30245;51.966;6.292;2023-07-13T06:09:10;21.50;57.30
44537;DHT22;30245;51.966;6.292;2023-07-13T06:11:36;21.50;57.40
44537;DHT22;30245;51.966;6.292;2023-07-13T06:14:01;21.50;57.50
44537;DHT22;30245;51.966;6.292;2023-07-13T06:16:27;21.60;57.50
44537;DHT22;30245;51.966;6.292;2023-07-13T06:18:53;21.70;57.50
44537;DHT22;30245;51.966;6.292;2023-07-13T06:21:21;21.70;57.50
44537;DHT22;30245;51.966;6.292;2023-07-13T06:23:50;21.80;57.50
44537;DHT22;30245;51.966;6.292;2023-07-13T06:26:18;21.80;57.50
44537;DHT22;30245;51.966;6.292;2023-07-13T06:28:44;21.90;57.50
44537;DHT22;30245;51.966;6.292;2023-07-13T06:31:11;22.00;57.40
44537;DHT22;30245;51.966;6.292;2023-07-13T06:33:37;22.00;57.50
44537;DHT22;30245;51.966;6.292;2023-07-13T06:36:05;22.10;57.60
44537;DHT22;30245;51.966;6.292;2023-07-13T06:38:31;22.20;57.50
44537;DHT22;30245;51.966;6.292;2023-07-13T06:40:57;22.20;57.40
44537;DHT22;30245;51.966;6.292;2023-07-13T06:43:23;22.40;57.40
44537;DHT22;30245;51.966;6.292;2023-07-13T06:45:51;22.40;57.30
44537;DHT22;30245;51.966;6.292;2023-07-13T06:48:18;22.50;57.30
44537;DHT22;30245;51.966;6.292;2023-07-13T06:50:45;22.50;57.40
44537;DHT22;30245;51.966;6.292;2023-07-13T06:53:12;22.50;57.40
44537;DHT22;30245;51.966;6.292;2023-07-13T06:55:38;22.50;57.50
44537;DHT22;30245;51.966;6.292;2023-07-13T06:58:03;22.60;57.50
44537;DHT22;30245;51.966;6.292;2023-07-13T07:00:29;22.60;57.30
44537;DHT22;30245;51.966;6.292;2023-07-13T07:02:55;22.60;57.40
44537;DHT22;30245;51.966;6.292;2023-07-13T07:05:20;22.70;57.50
44537;DHT22;30245;51.966;6.292;2023-07-13T07:07:51;22.70;57.40
44537;DHT22;30245;51.966;6.292;2023-07-13T07:10:17;22.80;57.40
44537;DHT22;30245;51.966;6.292;2023-07-13T07:12:43;22.80;57.50
44537;DHT22;30245;51.966;6.292;2023-07-13T07:15:09;22.80;57.60
44537;DHT22;30245;51.966;6.292;2023-07-13T07:17:35;22.80;57.70
44537;DHT22;30245;51.966;6.292;2023-07-13T07:20:00;22.80;57.60
44537;DHT22;30245;51.966;6.292;2023-07-13T07:22:26;22.90;57.60
44537;DHT22;30245;51.966;6.292;2023-07-13T07:24:53;23.00;57.40
44537;DHT22;30245;51.966;6.292;2023-07-13T07:27:19;23.10;57.10
44537;DHT22;30245;51.966;6.292;2023-07-13T07:29:45;23.20;57.00
44537;DHT22;30245;51.966;6.292;2023-07-13T07:32:11;23.10;57.00
44537;DHT22;30245;51.966;6.292;2023-07-13T07:34:37;23.10;57.30
44537;DHT22;30245;51.966;6.292;2023-07-13T07:37:03;23.10;57.30
44537;DHT22;30245;51.966;6.292;2023-07-13T07:39:29;23.10;57.20
44537;DHT22;30245;51.966;6.292;2023-07-13T07:41:55;23.10;57.10
44537;DHT22;30245;51.966;6.292;2023-07-13T07:44:21;23.10;57.20
44537;DHT22;30245;51.966;6.292;2023-07-13T07:46:47;23.10;57.20
44537;DHT22;30245;51.966;6.292;2023-07-13T07:49:13;23.10;57.20
44537;DHT22;30245;51.966;6.292;2023-07-13T07:51:38;23.20;57.20
44537;DHT22;30245;51.966;6.292;2023-07-13T07:54:05;23.10;57.40
44537;DHT22;30245;51.966;6.292;2023-07-13T07:56:31;23.10;57.40
44537;DHT22;30245;51.966;6.292;2023-07-13T07:58:57;23.20;57.30
44537;DHT22;30245;51.966;6.292;2023-07-13T08:01:22;23.30;57.10
44537;DHT22;30245;51.966;6.292;2023-07-13T08:03:48;23.30;57.00
44537;DHT22;30245;51.966;6.292;2023-07-13T08:06:14;23.30;56.90
44537;DHT22;30245;51.966;6.292;2023-07-13T08:08:40;23.30;56.90
44537;DHT22;30245;51.966;6.292;2023-07-13T08:11:07;23.30;56.90
44537;DHT22;30245;51.966;6.292;2023-07-13T08:13:33;23.30;57.00
44537;DHT22;30245;51.966;6.292;2023-07-13T08:16:00;23.40;56.80
44537;DHT22;30245;51.966;6.292;2023-07-13T08:18:26;23.40;56.70
44537;DHT22;30245;51.966;6.292;2023-07-13T08:20:53;23.50;56.60
44537;DHT22;30245;51.966;6.292;2023-07-13T08:23:22;23.60;56.30
44537;DHT22;30245;51.966;6.292;2023-07-13T08:25:51;23.70;56.20
44537;DHT22;30245;51.966;6.292;2023-07-13T08:28:20;23.80;55.90
44537;DHT22;30245;51.966;6.292;2023-07-13T08:30:46;23.80;55.90
44537;DHT22;30245;51.966;6.292;2023-07-13T08:33:18;23.90;55.90
44537;DHT22;30245;51.966;6.292;2023-07-13T08:35:47;24.00;55.60
44537;DHT22;30245;51.966;6.292;2023-07-13T08:38:14;24.20;55.30
44537;DHT22;30245;51.966;6.292;2023-07-13T08:40:41;24.20;55.10
44537;DHT22;30245;51.966;6.292;2023-07-13T08:43:12;24.20;55.10
44537;DHT22;30245;51.966;6.292;2023-07-13T08:48:20;24.20;54.90
44537;DHT22;30245;51.966;6.292;2023-07-13T08:51:00;24.20;54.90
44537;DHT22;30245;51.966;6.292;2023-07-13T08:53:40;24.20;54.90
44537;DHT22;30245;51.966;6.292;2023-07-13T08:56:16;24.30;54.70
44537;DHT22;30245;51.966;6.292;2023-07-13T08:58:44;24.40;54.40
44537;DHT22;30245;51.966;6.292;2023-07-13T09:03:47;24.40;54.10
44537;DHT22;30245;51.966;6.292;2023-07-13T09:06:16;24.40;54.10
44537;DHT22;30245;51.966;6.292;2023-07-13T09:11:58;24.30;54.30
44537;DHT22;30245;51.966;6.292;2023-07-13T09:14:36;24.40;54.30
44537;DHT22;30245;51.966;6.292;2023-07-13T09:17:07;24.60;54.00
44537;DHT22;30245;51.966;6.292;2023-07-13T09:19:36;24.80;53.70
44537;DHT22;30245;51.966;6.292;2023-07-13T09:22:03;24.90;53.30
44537;DHT22;30245;51.966;6.292;2023-07-13T09:27:35;25.20;52.70
44537;DHT22;30245;51.966;6.292;2023-07-13T09:30:15;25.30;52.40
44537;DHT22;30245;51.966;6.292;2023-07-13T09:32:48;25.40;52.20
44537;DHT22;30245;51.966;6.292;2023-07-13T09:35:19;25.30;51.90
44537;DHT22;30245;51.966;6.292;2023-07-13T09:37:46;25.30;52.10
44537;DHT22;30245;51.966;6.292;2023-07-13T09:40:28;25.40;52.00
44537;DHT22;30245;51.966;6.292;2023-07-13T09:42:57;25.30;51.70
44537;DHT22;30245;51.966;6.292;2023-07-13T09:45:33;25.40;51.50
44537;DHT22;30245;51.966;6.292;2023-07-13T09:48:04;25.40;50.80
44537;DHT22;30245;51.966;6.292;2023-07-13T09:50:30;25.50;50.80
44537;DHT22;30245;51.966;6.292;2023-07-13T09:52:56;25.70;50.70
44537;DHT22;30245;51.966;6.292;2023-07-13T09:55:40;25.80;50.30
44537;DHT22;30245;51.966;6.292;2023-07-13T09:58:18;25.80;50.30
44537;DHT22;30245;51.966;6.292;2023-07-13T10:01:01;25.90;49.60
44537;DHT22;30245;51.966;6.292;2023-07-13T10:03:34;26.10;49.00
44537;DHT22;30245;51.966;6.292;2023-07-13T10:06:16;26.10;47.90
44537;DHT22;30245;51.966;6.292;2023-07-13T10:08:44;26.10;47.60
44537;DHT22;30245;51.966;6.292;2023-07-13T10:11:11;26.20;47.70
44537;DHT22;30245;51.966;6.292;2023-07-13T10:13:44;26.30;47.60
44537;DHT22;30245;51.966;6.292;2023-07-13T10:16:11;26.40;47.20
44537;DHT22;30245;51.966;6.292;2023-07-13T10:18:46;26.40;46.80
44537;DHT22;30245;51.966;6.292;2023-07-13T10:21:22;26.20;48.00
44537;DHT22;30245;51.966;6.292;2023-07-13T10:24:10;25.90;49.70
44537;DHT22;30245;51.966;6.292;2023-07-13T10:26:41;25.60;51.30
44537;DHT22;30245;51.966;6.292;2023-07-13T10:29:11;25.40;52.10
44537;DHT22;30245;51.966;6.292;2023-07-13T10:31:40;25.30;52.50
44537;DHT22;30245;51.966;6.292;2023-07-13T10:34:11;25.20;53.00
44537;DHT22;30245;51.966;6.292;2023-07-13T10:36:43;25.20;53.40
44537;DHT22;30245;51.966;6.292;2023-07-13T10:39:26;25.30;53.40
44537;DHT22;30245;51.966;6.292;2023-07-13T10:42:01;25.30;53.00
44537;DHT22;30245;51.966;6.292;2023-07-13T10:44:30;25.30;53.00
44537;DHT22;30245;51.966;6.292;2023-07-13T10:47:08;25.30;52.90
44537;DHT22;30245;51.966;6.292;2023-07-13T10:49:39;25.40;53.20
44537;DHT22;30245;51.966;6.292;2023-07-13T10:52:20;25.60;53.80
44537;DHT22;30245;51.966;6.292;2023-07-13T10:54:52;25.80;53.70
44537;DHT22;30245;51.966;6.292;2023-07-13T10:57:21;26.10;53.40
44537;DHT22;30245;51.966;6.292;2023-07-13T11:00:17;26.30;52.80
44537;DHT22;30245;51.966;6.292;2023-07-13T11:02:43;26.40;52.50
44537;DHT22;30245;51.966;6.292;2023-07-13T11:07:56;26.70;51.90
44537;DHT22;30245;51.966;6.292;2023-07-13T11:10:54;26.90;51.20
44537;DHT22;30245;51.966;6.292;2023-07-13T11:18:48;27.00;49.20
44537;DHT22;30245;51.966;6.292;2023-07-13T11:21:18;27.00;49.30
44537;DHT22;30245;51.966;6.292;2023-07-13T11:23:52;27.00;48.90
44537;DHT22;30245;51.966;6.292;2023-07-13T11:29:53;26.70;50.10
44537;DHT22;30245;51.966;6.292;2023-07-13T11:31:57;26.80;51.00
44537;DHT22;30245;51.966;6.292;2023-07-13T11:36:52;27.10;50.40
44537;DHT22;30245;51.966;6.292;2023-07-13T11:39:32;27.00;50.30
44537;DHT22;30245;51.966;6.292;2023-07-13T11:42:18;26.90;50.30
44537;DHT22;30245;51.966;6.292;2023-07-13T11:44:47;26.70;49.90
44537;DHT22;30245;51.966;6.292;2023-07-13T11:47:21;26.70;50.10
44537;DHT22;30245;51.966;6.292;2023-07-13T11:49:52;26.70;50.10
44537;DHT22;30245;51.966;6.292;2023-07-13T11:52:26;26.90;50.10
44537;DHT22;30245;51.966;6.292;2023-07-13T11:54:55;26.90;49.90
44537;DHT22;30245;51.966;6.292;2023-07-13T11:57:26;26.80;49.70
44537;DHT22;30245;51.966;6.292;2023-07-13T11:59:54;26.80;49.80
44537;DHT22;30245;51.966;6.292;2023-07-13T12:02:42;26.70;49.60
44537;DHT22;30245;51.966;6.292;2023-07-13T12:05:12;26.70;49.80
44537;DHT22;30245;51.966;6.292;2023-07-13T12:07:39;26.70;50.00
44537;DHT22;30245;51.966;6.292;2023-07-13T12:10:20;26.60;49.80
44537;DHT22;30245;51.966;6.292;2023-07-13T12:13:08;26.50;50.30
44537;DHT22;30245;51.966;6.292;2023-07-13T12:15:43;26.60;50.10
44537;DHT22;30245;51.966;6.292;2023-07-13T12:18:19;26.80;50.20
44537;DHT22;30245;51.966;6.292;2023-07-13T12:20:46;26.90;49.40
44537;DHT22;30245;51.966;6.292;2023-07-13T12:23:29;26.90;49.40
44537;DHT22;30245;51.966;6.292;2023-07-13T12:25:57;26.90;49.40
44537;DHT22;30245;51.966;6.292;2023-07-13T12:28:32;26.90;49.60
44537;DHT22;30245;51.966;6.292;2023-07-13T12:31:00;27.00;49.40
44537;DHT22;30245;51.966;6.292;2023-07-13T12:33:29;27.20;48.90
44537;DHT22;30245;51.966;6.292;2023-07-13T12:35:55;27.30;48.40
44537;DHT22;30245;51.966;6.292;2023-07-13T12:38:24;27.40;47.70
44537;DHT22;30245;51.966;6.292;2023-07-13T12:40:51;27.30;47.50
44537;DHT22;30245;51.966;6.292;2023-07-13T12:43:20;27.30;47.60
44537;DHT22;30245;51.966;6.292;2023-07-13T12:46:02;27.40;47.60
44537;DHT22;30245;51.966;6.292;2023-07-13T12:48:28;27.50;47.40
44537;DHT22;30245;51.966;6.292;2023-07-13T12:50:55;27.60;46.80
44537;DHT22;30245;51.966;6.292;2023-07-13T12:53:23;27.70;47.00
44537;DHT22;30245;51.966;6.292;2023-07-13T12:55:55;27.90;47.10
44537;DHT22;30245;51.966;6.292;2023-07-13T13:00:55;28.40;46.70
44537;DHT22;30245;51.966;6.292;2023-07-13T13:05:47;28.50;45.70
44537;DHT22;30245;51.966;6.292;2023-07-13T13:08:13;28.40;45.60
44537;DHT22;30245;51.966;6.292;2023-07-13T13:10:40;28.30;45.60
44537;DHT22;30245;51.966;6.292;2023-07-13T13:13:05;28.30;45.70
44537;DHT22;30245;51.966;6.292;2023-07-13T13:15:31;28.20;45.80
44537;DHT22;30245;51.966;6.292;2023-07-13T13:17:58;28.40;46.10
44537;DHT22;30245;51.966;6.292;2023-07-13T13:20:24;28.60;46.00
44537;DHT22;30245;51.966;6.292;2023-07-13T13:22:51;28.90;45.50
44537;DHT22;30245;51.966;6.292;2023-07-13T13:25:17;29.10;45.00
44537;DHT22;30245;51.966;6.292;2023-07-13T13:27:44;29.20;44.00
44537;DHT22;30245;51.966;6.292;2023-07-13T13:30:14;29.30;43.40
44537;DHT22;30245;51.966;6.292;2023-07-13T13:32:42;29.30;43.00
44537;DHT22;30245;51.966;6.292;2023-07-13T13:35:18;29.00;42.80
44537;DHT22;30245;51.966;6.292;2023-07-13T13:37:44;28.70;43.00
44537;DHT22;30245;51.966;6.292;2023-07-13T13:40:21;28.50;43.60
44537;DHT22;30245;51.966;6.292;2023-07-13T13:42:48;28.30;44.00
44537;DHT22;30245;51.966;6.292;2023-07-13T13:45:14;28.20;44.10
44537;DHT22;30245;51.966;6.292;2023-07-13T13:47:43;28.20;44.10
44537;DHT22;30245;51.966;6.292;2023-07-13T13:50:14;28.30;44.00
44537;DHT22;30245;51.966;6.292;2023-07-13T13:52:41;28.40;43.60
44537;DHT22;30245;51.966;6.292;2023-07-13T13:55:17;28.50;43.40
44537;DHT22;30245;51.966;6.292;2023-07-13T13:57:45;28.60;43.30
44537;DHT22;30245;51.966;6.292;2023-07-13T14:00:12;28.60;43.00
44537;DHT22;30245;51.966;6.292;2023-07-13T14:02:41;28.60;43.10
44537;DHT22;30245;51.966;6.292;2023-07-13T14:05:11;28.70;43.30
44537;DHT22;30245;51.966;6.292;2023-07-13T14:07:37;28.80;43.00
44537;DHT22;30245;51.966;6.292;2023-07-13T14:10:16;28.70;43.00
44537;DHT22;30245;51.966;6.292;2023-07-13T14:12:47;28.70;43.10
44537;DHT22;30245;51.966;6.292;2023-07-13T14:15:26;28.70;43.00
44537;DHT22;30245;51.966;6.292;2023-07-13T14:17:53;28.90;43.00
44537;DHT22;30245;51.966;6.292;2023-07-13T14:20:20;29.20;42.80
44537;DHT22;30245;51.966;6.292;2023-07-13T14:22:48;29.70;42.50
44537;DHT22;30245;51.966;6.292;2023-07-13T14:25:16;30.10;42.10
44537;DHT22;30245;51.966;6.292;2023-07-13T14:27:44;30.20;42.10
44537;DHT22;30245;51.966;6.292;2023-07-13T14:30:18;30.40;42.30
44537;DHT22;30245;51.966;6.292;2023-07-13T14:32:44;30.30;42.40
44537;DHT22;30245;51.966;6.292;2023-07-13T14:35:13;30.20;42.70
44537;DHT22;30245;51.966;6.292;2023-07-13T14:37:40;30.10;43.20
44537;DHT22;30245;51.966;6.292;2023-07-13T14:40:35;30.10;43.30
44537;DHT22;30245;51.966;6.292;2023-07-13T14:43:01;29.90;43.50
44537;DHT22;30245;51.966;6.292;2023-07-13T14:45:27;29.80;43.80
44537;DHT22;30245;51.966;6.292;2023-07-13T14:47:54;29.80;44.10
44537;DHT22;30245;51.966;6.292;2023-07-13T14:50:24;29.90;44.10
44537;DHT22;30245;51.966;6.292;2023-07-13T14:52:52;30.20;43.70
44537;DHT22;30245;51.966;6.292;2023-07-13T14:55:18;30.50;43.40
44537;DHT22;30245;51.966;6.292;2023-07-13T14:57:45;30.50;43.10
44537;DHT22;30245;51.966;6.292;2023-07-13T15:00:21;30.50;43.10
44537;DHT22;30245;51.966;6.292;2023-07-13T15:02:52;30.50;43.30
44537;DHT22;30245;51.966;6.292;2023-07-13T15:05:27;30.40;43.50
44537;DHT22;30245;51.966;6.292;2023-07-13T15:08:02;30.30;43.80
44537;DHT22;30245;51.966;6.292;2023-07-13T15:10:30;30.30;43.80
44537;DHT22;30245;51.966;6.292;2023-07-13T15:13:12;30.30;43.90
44537;DHT22;30245;51.966;6.292;2023-07-13T15:15:40;30.30;44.00
44537;DHT22;30245;51.966;6.292;2023-07-13T15:18:11;30.20;44.00
44537;DHT22;30245;51.966;6.292;2023-07-13T15:20:37;30.20;44.10
44537;DHT22;30245;51.966;6.292;2023-07-13T15:23:04;30.10;44.10
44537;DHT22;30245;51.966;6.292;2023-07-13T15:25:32;30.00;43.70
44537;DHT22;30245;51.966;6.292;2023-07-13T15:27:59;29.70;42.50
44537;DHT22;30245;51.966;6.292;2023-07-13T15:30:29;29.50;42.40
44537;DHT22;30245;51.966;6.292;2023-07-13T15:33:00;29.30;42.10
44537;DHT22;30245;51.966;6.292;2023-07-13T15:35:28;29.20;41.60
44537;DHT22;30245;51.966;6.292;2023-07-13T15:37:53;29.00;41.60
44537;DHT22;30245;51.966;6.292;2023-07-13T15:40:20;28.80;41.40
44537;DHT22;30245;51.966;6.292;2023-07-13T15:42:50;28.70;41.20
44537;DHT22;30245;51.966;6.292;2023-07-13T15:45:22;28.50;41.20
44537;DHT22;30245;51.966;6.292;2023-07-13T15:47:50;28.50;41.40
44537;DHT22;30245;51.966;6.292;2023-07-13T15:50:19;28.50;41.50
44537;DHT22;30245;51.966;6.292;2023-07-13T15:52:55;28.50;41.30
44537;DHT22;30245;51.966;6.292;2023-07-13T15:55:24;28.30;40.60
44537;DHT22;30245;51.966;6.292;2023-07-13T15:57:51;28.20;40.90
44537;DHT22;30245;51.966;6.292;2023-07-13T16:00:21;28.20;41.10
44537;DHT22;30245;51.966;6.292;2023-07-13T16:02:48;28.10;41.10
44537;DHT22;30245;51.966;6.292;2023-07-13T16:05:15;28.10;41.00
44537;DHT22;30245;51.966;6.292;2023-07-13T16:07:43;27.90;41.00